TimeCDT,TemperatureF,Dew PointF,Humidity,Sea Level PressureIn,VisibilityMPH,Wind Direction,Wind SpeedMPH,Gust SpeedMPH,PrecipitationIn,Events,Conditions,WindDirDegrees,DateUTC
12:15 AM,61.7,47.3,59,29.56,10.0,South,33.4,40.3,N/A,,Mostly Cloudy,190,2013-04-14 05:15:00
12:35 AM,61.0,48.2,63,29.56,10.0,South,34.5,43.7,N/A,,Scattered Clouds,190,2013-04-14 05:35:00
12:55 AM,60.8,47.5,62,29.56,10.0,South,31.1,36.8,N/A,,Scattered Clouds,190,2013-04-14 05:55:00
1:15 AM,60.3,47.7,63,29.55,10.0,SSW,29.9,35.7,N/A,,Clear,200,2013-04-14 06:15:00
1:35 AM,60.3,48.2,64,29.55,10.0,SSW,28.8,36.8,N/A,,Scattered Clouds,200,2013-04-14 06:35:00
1:55 AM,59.5,48.2,66,29.55,10.0,SSW,25.3,39.1,N/A,,Scattered Clouds,200,2013-04-14 06:55:00
2:15 AM,58.8,48.6,69,29.55,10.0,SSW,25.3,36.8,N/A,,Clear,200,2013-04-14 07:15:00
2:35 AM,57.6,48.6,72,29.53,10.0,SSW,23.0,28.8,N/A,,Clear,200,2013-04-14 07:35:00
2:55 AM,57.2,48.4,72,29.52,10.0,SSW,23.0,29.9,N/A,,Clear,200,2013-04-14 07:55:00
3:15 AM,56.5,48.4,74,29.52,10.0,SSW,21.9,28.8,N/A,,Clear,200,2013-04-14 08:15:00
3:35 AM,55.6,48.2,76,29.51,10.0,SSW,21.9,25.3,N/A,,Clear,200,2013-04-14 08:35:00
3:55 AM,55.4,48.2,77,29.49,10.0,South,23.0,-,N/A,,Clear,190,2013-04-14 08:55:00
4:15 AM,55.4,48.4,77,29.49,10.0,South,19.6,-,N/A,,Clear,190,2013-04-14 09:15:00
4:35 AM,54.9,48.4,79,29.49,10.0,SSW,21.9,26.5,N/A,,Clear,200,2013-04-14 09:35:00
4:55 AM,54.0,47.7,79,29.48,10.0,South,20.7,26.5,N/A,,Clear,190,2013-04-14 09:55:00
5:15 AM,53.6,47.3,79,29.48,10.0,SSW,19.6,-,N/A,,Clear,200,2013-04-14 10:15:00
5:35 AM,52.9,47.3,81,29.48,10.0,SSW,19.6,-,N/A,,Clear,200,2013-04-14 10:35:00
5:55 AM,52.2,46.0,80,29.49,10.0,SSW,16.1,-,N/A,,Clear,200,2013-04-14 10:55:00
6:15 AM,51.4,45.9,81,29.48,10.0,SSW,15.0,-,N/A,,Clear,200,2013-04-14 11:15:00
6:35 AM,50.9,45.5,82,29.48,10.0,SSW,16.1,-,N/A,,Clear,210,2013-04-14 11:35:00
6:55 AM,50.4,44.6,81,29.48,10.0,SSW,17.3,-,N/A,,Clear,200,2013-04-14 11:55:00
7:15 AM,50.0,43.2,77,29.47,10.0,SSW,18.4,-,N/A,,Clear,210,2013-04-14 12:15:00
7:35 AM,51.4,41.5,69,29.49,10.0,SW,21.9,-,N/A,,Clear,220,2013-04-14 12:35:00
7:55 AM,52.9,40.3,62,29.48,10.0,SW,19.6,-,N/A,,Clear,220,2013-04-14 12:55:00
8:15 AM,54.3,39.9,58,29.50,10.0,SW,16.1,-,N/A,,Clear,220,2013-04-14 13:15:00
11:15 AM,61.0,35.1,38,29.60,10.0,NNE,15.0,-,N/A,,Unknown,20,2013-04-14 16:15:00
11:35 AM,62.4,34.3,35,29.60,10.0,NNE,11.5,-,N/A,,Clear,20,2013-04-14 16:35:00
11:55 AM,63.0,34.0,34,29.60,10.0,NNE,12.7,16.1,N/A,,Clear,30,2013-04-14 16:55:00
12:15 PM,63.1,33.8,33,29.61,10.0,NNE,8.1,-,N/A,,Clear,20,2013-04-14 17:15:00
12:35 PM,64.6,33.3,31,29.60,10.0,ENE,8.1,-,N/A,,Clear,60,2013-04-14 17:35:00
12:55 PM,66.4,33.6,30,29.60,10.0,NE,8.1,-,N/A,,Clear,50,2013-04-14 17:55:00
1:15 PM,67.3,32.7,28,29.60,10.0,ESE,6.9,-,N/A,,Clear,110,2013-04-14 18:15:00
1:35 PM,67.3,32.2,27,29.59,10.0,Calm,Calm,-,N/A,,Clear,0,2013-04-14 18:35:00
1:55 PM,68.0,32.2,26,29.59,10.0,East,3.5,-,N/A,,Clear,100,2013-04-14 18:55:00
2:15 PM,69.6,32.2,25,29.58,10.0,ENE,6.9,-,N/A,,Clear,70,2013-04-14 19:15:00
2:35 PM,70.9,32.0,24,29.57,10.0,East,4.6,-,N/A,,Clear,90,2013-04-14 19:35:00
2:55 PM,72.3,32.2,23,29.57,10.0,ESE,6.9,-,N/A,,Clear,110,2013-04-14 19:55:00
3:15 PM,72.1,32.0,23,29.56,10.0,NE,3.5,-,N/A,,Clear,50,2013-04-14 20:15:00
3:35 PM,73.8,32.2,22,29.54,10.0,ENE,8.1,-,N/A,,Clear,60,2013-04-14 20:35:00
3:55 PM,74.1,32.2,21,29.53,10.0,East,6.9,16.1,N/A,,Clear,90,2013-04-14 20:55:00
4:15 PM,74.5,31.6,21,29.53,10.0,NE,5.8,-,N/A,,Clear,40,2013-04-14 21:15:00
4:35 PM,74.8,31.6,21,29.52,10.0,NE,4.6,-,N/A,,Clear,50,2013-04-14 21:35:00
4:55 PM,75.9,32.2,20,29.52,10.0,ENE,13.8,-,N/A,,Clear,60,2013-04-14 21:55:00
5:15 PM,75.6,32.4,21,29.52,10.0,NE,11.5,-,N/A,,Clear,50,2013-04-14 22:15:00
5:35 PM,76.1,32.7,21,29.52,10.0,ENE,13.8,19.6,N/A,,Clear,60,2013-04-14 22:35:00
5:55 PM,72.7,32.0,22,29.52,10.0,East,15.0,-,N/A,,Clear,80,2013-04-14 22:55:00
6:15 PM,74.3,32.4,21,29.52,10.0,NE,15.0,20.7,N/A,,Clear,50,2013-04-14 23:15:00
6:35 PM,73.6,32.2,22,29.53,10.0,ENE,11.5,16.1,N/A,,Clear,70,2013-04-14 23:35:00
6:55 PM,72.7,31.6,22,29.53,10.0,ENE,16.1,21.9,N/A,,Clear,70,2013-04-14 23:55:00
7:15 PM,71.6,31.1,22,29.53,10.0,ENE,15.0,20.7,N/A,,Clear,70,2013-04-15 00:15:00
7:35 PM,68.9,29.5,23,29.55,10.0,ENE,17.3,-,N/A,,Clear,70,2013-04-15 00:35:00
7:55 PM,67.5,28.2,23,29.56,10.0,ENE,18.4,-,N/A,,Clear,70,2013-04-15 00:55:00
8:15 PM,66.2,28.8,25,29.58,10.0,ENE,15.0,-,N/A,,Clear,70,2013-04-15 01:15:00
8:35 PM,64.9,29.3,26,29.58,10.0,ENE,16.1,21.9,N/A,,Clear,70,2013-04-15 01:35:00
8:55 PM,63.7,30.0,28,29.60,10.0,ENE,20.7,24.2,N/A,,Clear,60,2013-04-15 01:55:00
9:15 PM,62.6,31.3,31,29.60,10.0,ENE,19.6,27.6,N/A,,Clear,70,2013-04-15 02:15:00
9:35 PM,61.5,31.5,32,29.62,10.0,ENE,21.9,28.8,N/A,,Clear,70,2013-04-15 02:35:00
9:55 PM,60.3,30.9,33,29.65,10.0,ENE,19.6,26.5,N/A,,Clear,60,2013-04-15 02:55:00
10:15 PM,58.8,30.6,34,29.66,10.0,ENE,19.6,28.8,N/A,,Clear,60,2013-04-15 03:15:00
10:35 PM,55.8,27.3,34,29.67,10.0,ENE,23.0,-,N/A,,Clear,60,2013-04-15 03:35:00
10:55 PM,54.9,24.8,31,29.69,10.0,ENE,19.6,27.6,N/A,,Clear,60,2013-04-15 03:55:00
11:15 PM,53.6,23.4,31,29.71,10.0,ENE,18.4,25.3,N/A,,Clear,60,2013-04-15 04:15:00
11:35 PM,52.2,20.3,29,29.71,10.0,NE,15.0,21.9,N/A,,Clear,50,2013-04-15 04:35:00
11:55 PM,50.4,20.1,30,29.71,10.0,ENE,20.7,26.5,N/A,,Clear,70,2013-04-15 04:55:00